createdAt,value
2023-02-12T00:00:49.964Z,99364.22
2023-02-12T00:03:17.402Z,99365.94
2023-02-12T00:05:44.110Z,99367.19
2023-02-12T00:08:12.260Z,99362.44
2023-02-12T00:10:44.870Z,99373.41
2023-02-12T00:13:11.835Z,99365.66
2023-02-12T00:15:39.408Z,99368.63
2023-02-12T00:18:06.091Z,99376.22
2023-02-12T00:20:32.733Z,99381.56
2023-02-12T00:22:59.427Z,99368.91
2023-02-12T00:25:26.131Z,99377.59
2023-02-12T00:27:52.849Z,99375.78
2023-02-12T00:30:19.562Z,99372.81
2023-02-12T00:32:46.519Z,99375.37
2023-02-12T00:35:13.229Z,99377.84
2023-02-12T00:37:39.909Z,99378.88
2023-02-12T00:40:06.952Z,99389.03
2023-02-12T00:42:33.647Z,99382.22
2023-02-12T00:45:00.320Z,99392.13
2023-02-12T00:47:26.984Z,99385.34
2023-02-12T00:49:53.642Z,99389.72
2023-02-12T00:52:20.370Z,99397.13
2023-02-12T00:54:47.055Z,99401.88
2023-02-12T00:57:13.726Z,99402.72
2023-02-12T00:59:42.410Z,99398.03
2023-02-12T01:02:09.125Z,99399.13
2023-02-12T01:04:35.852Z,99404.81
2023-02-12T01:07:02.589Z,99413.91
2023-02-12T01:09:29.343Z,99402.66
2023-02-12T01:11:56.030Z,99405.84
2023-02-12T01:14:22.710Z,99407.09
2023-02-12T01:16:49.366Z,99408.81
2023-02-12T01:19:16.020Z,99409.09
2023-02-12T01:21:42.680Z,99408.31
2023-02-12T01:24:09.579Z,99406.00
2023-02-12T01:26:36.329Z,99394.34
2023-02-12T01:29:05.354Z,99401.59
2023-02-12T01:31:33.405Z,99393.47
2023-02-12T01:34:00.402Z,99396.28
2023-02-12T01:36:27.684Z,99396.78
2023-02-12T01:38:54.412Z,99391.50
2023-02-12T01:41:22.281Z,99395.75
2023-02-12T01:44:07.181Z,99393.03
2023-02-12T01:46:33.939Z,99394.13
2023-02-12T01:49:00.691Z,99393.63
2023-02-12T01:51:27.392Z,99393.84
2023-02-12T01:53:54.605Z,99398.78
2023-02-12T01:56:21.460Z,99392.34
2023-02-12T01:58:48.123Z,99401.28
2023-02-12T02:01:18.948Z,99404.78
2023-02-12T02:03:46.430Z,99387.69
2023-02-12T02:06:14.670Z,99394.19
2023-02-12T02:08:41.356Z,99393.38
2023-02-12T02:11:27.959Z,99398.44
2023-02-12T02:14:13.433Z,99389.75
2023-02-12T02:16:40.880Z,99389.19
2023-02-12T02:19:20.604Z,99399.81
2023-02-12T02:22:14.511Z,99400.66
2023-02-12T02:24:41.178Z,99405.53
2023-02-12T02:27:07.819Z,99410.84
2023-02-12T02:29:40.329Z,99421.06
2023-02-12T02:32:18.806Z,99412.22
2023-02-12T02:34:51.019Z,99415.53
2023-02-12T02:37:27.984Z,99430.06
2023-02-12T02:39:57.771Z,99419.63
2023-02-12T02:42:37.739Z,99424.28
2023-02-12T02:45:21.916Z,99431.63
2023-02-12T02:47:50.385Z,99437.44
2023-02-12T02:50:17.772Z,99432.06
2023-02-12T02:52:49.599Z,99439.00
2023-02-12T02:55:18.177Z,99439.06
2023-02-12T02:57:50.615Z,99441.78
2023-02-12T03:00:28.432Z,99445.31
2023-02-12T03:03:15.445Z,99442.00
2023-02-12T03:05:46.545Z,99437.53
2023-02-12T03:08:16.028Z,99441.06
2023-02-12T03:10:46.294Z,99432.06
2023-02-12T03:13:17.507Z,99422.28
2023-02-12T03:15:52.220Z,99428.47
2023-02-12T03:18:22.843Z,99424.75
2023-02-12T03:20:50.835Z,99421.53
2023-02-12T03:23:18.676Z,99407.06
2023-02-12T03:25:50.319Z,99410.53
2023-02-12T03:28:18.906Z,99407.03
2023-02-12T03:31:05.961Z,99423.78
2023-02-12T03:33:35.747Z,99420.22
2023-02-12T03:36:12.171Z,99418.47
2023-02-12T03:38:40.034Z,99421.47
2023-02-12T03:41:09.802Z,99417.84
2023-02-12T03:43:46.501Z,99413.22
2023-02-12T03:46:33.225Z,99418.50
2023-02-12T03:49:01.919Z,99423.91
2023-02-12T03:51:28.590Z,99421.53
2023-02-12T03:53:55.450Z,99418.16
2023-02-12T03:56:30.492Z,99407.88
2023-02-12T03:58:57.143Z,99403.72
2023-02-12T04:01:23.977Z,99393.44
2023-02-12T04:03:50.721Z,99398.56
2023-02-12T04:06:25.937Z,99396.12
2023-02-12T04:08:52.736Z,99402.09
2023-02-12T04:11:22.459Z,99389.28
2023-02-12T04:13:52.284Z,99385.00
2023-02-12T04:16:38.097Z,99408.06
2023-02-12T04:19:05.314Z,99427.72
2023-02-12T04:21:32.015Z,99431.16
2023-02-12T04:24:17.609Z,99418.31
2023-02-12T04:26:55.390Z,99421.75
2023-02-12T04:29:24.797Z,99408.09
2023-02-12T04:31:58.826Z,99404.69
2023-02-12T04:34:45.356Z,99398.69
2023-02-12T04:37:22.837Z,99396.09
2023-02-12T04:39:49.569Z,99385.03
2023-02-12T04:42:16.253Z,99385.03
2023-02-12T04:44:43.602Z,99388.44
2023-02-12T04:47:13.473Z,99378.19
2023-02-12T04:49:40.337Z,99373.12
2023-02-12T04:52:07.266Z,99395.25
2023-02-12T04:54:34.424Z,99392.72
2023-02-12T04:57:01.119Z,99379.88
2023-02-12T04:59:27.784Z,99397.84
2023-02-12T05:01:54.430Z,99388.44
2023-02-12T05:04:21.282Z,99403.81
2023-02-12T05:06:47.995Z,99409.75
2023-02-12T05:09:16.006Z,99419.19
2023-02-12T05:11:42.833Z,99449.91
2023-02-12T05:14:09.587Z,99461.88
2023-02-12T05:16:36.239Z,99453.31
2023-02-12T05:19:02.980Z,99477.16
2023-02-12T05:21:29.695Z,99472.09
2023-02-12T05:23:56.408Z,99483.94
2023-02-12T05:26:23.140Z,99496.00
2023-02-12T05:28:49.854Z,99503.66
2023-02-12T05:31:20.032Z,99501.94
2023-02-12T05:33:48.154Z,99509.62
2023-02-12T05:36:15.925Z,99523.28
2023-02-12T05:38:42.636Z,99526.75
2023-02-12T05:41:13.357Z,99520.78
2023-02-12T05:43:40.117Z,99520.78
2023-02-12T05:46:06.993Z,99520.78
2023-02-12T05:48:33.846Z,99513.06
2023-02-12T05:51:06.583Z,99514.75
2023-02-12T05:53:33.321Z,99527.59
2023-02-12T05:56:13.562Z,99531.84
2023-02-12T05:58:40.707Z,99537.88
2023-02-12T06:01:11.664Z,99542.97
2023-02-12T06:03:38.435Z,99554.06
2023-02-12T06:06:05.396Z,99548.97
2023-02-12T06:08:32.119Z,99561.72
2023-02-12T06:11:03.093Z,99561.78
2023-02-12T06:13:30.327Z,99580.47
2023-02-12T06:15:57.704Z,99585.62
2023-02-12T06:18:24.725Z,99582.00
2023-02-12T06:20:51.650Z,99577.00
2023-02-12T06:23:18.419Z,99583.59
2023-02-12T06:25:45.129Z,99589.47
2023-02-12T06:28:11.801Z,99593.81
2023-02-12T06:30:38.562Z,99592.31
2023-02-12T06:33:05.220Z,99592.59
2023-02-12T06:35:31.890Z,99588.22
2023-02-12T06:37:58.595Z,99587.31
2023-02-12T06:40:25.290Z,99581.37
2023-02-12T06:42:52.041Z,99585.81
2023-02-12T06:45:18.735Z,99583.31
2023-02-12T06:47:45.379Z,99599.22
2023-02-12T06:50:12.026Z,99603.19
2023-02-12T06:52:38.713Z,99599.94
2023-02-12T06:55:05.518Z,99605.72
2023-02-12T06:57:32.222Z,99596.19
2023-02-12T06:59:58.869Z,99590.09
2023-02-12T07:02:25.565Z,99600.94
2023-02-12T07:04:52.318Z,99604.37
2023-02-12T07:07:19.019Z,99597.72
2023-02-12T07:09:45.670Z,99597.84
2023-02-12T07:12:12.320Z,99600.91
2023-02-12T07:14:39.060Z,99603.59
2023-02-12T07:17:08.034Z,99598.03
2023-02-12T07:19:34.685Z,99601.81
2023-02-12T07:22:01.396Z,99607.97
2023-02-12T07:24:28.058Z,99610.88
2023-02-12T07:26:54.730Z,99613.81
2023-02-12T07:29:21.400Z,99627.84
2023-02-12T07:31:48.150Z,99635.34
2023-02-12T07:34:14.813Z,99634.91
2023-02-12T07:36:42.370Z,99647.62
2023-02-12T07:39:10.718Z,99650.22
2023-02-12T07:41:37.507Z,99653.47
2023-02-12T07:44:07.556Z,99650.75
2023-02-12T07:46:35.680Z,99662.91
2023-02-12T07:49:04.474Z,99660.81
2023-02-12T07:51:32.867Z,99671.41
2023-02-12T07:54:00.786Z,99670.09
2023-02-12T07:56:32.708Z,99678.41
2023-02-12T07:59:03.372Z,99676.56
2023-02-12T08:01:39.216Z,99680.69
2023-02-12T08:04:07.465Z,99688.94
2023-02-12T08:06:35.419Z,99693.91
2023-02-12T08:09:03.934Z,99693.88
2023-02-12T08:11:30.625Z,99696.31
2023-02-12T08:13:57.660Z,99689.22
2023-02-12T08:16:25.276Z,99690.00
2023-02-12T08:18:52.227Z,99690.94
2023-02-12T08:21:22.377Z,99704.44
2023-02-12T08:23:52.195Z,99695.59
2023-02-12T08:26:19.953Z,99700.16
2023-02-12T08:28:47.792Z,99715.09
2023-02-12T08:31:16.177Z,99714.22
2023-02-12T08:33:44.437Z,99720.88
2023-02-12T08:36:12.091Z,99713.84
2023-02-12T08:38:39.199Z,99723.28
2023-02-12T08:41:07.133Z,99729.44
2023-02-12T08:43:33.910Z,99732.69
2023-02-12T08:46:10.718Z,99727.25
2023-02-12T08:48:37.590Z,99742.00
2023-02-12T08:51:11.522Z,99744.69
2023-02-12T08:53:38.887Z,99746.06
2023-02-12T08:56:05.723Z,99753.06
2023-02-12T08:58:32.917Z,99747.97
2023-02-12T09:00:59.719Z,99746.00
2023-02-12T09:03:26.412Z,99755.81
2023-02-12T09:05:53.406Z,99757.37
2023-02-12T09:08:20.210Z,99765.37
2023-02-12T09:10:46.888Z,99770.47
2023-02-12T09:13:13.772Z,99775.41
2023-02-12T09:15:43.282Z,99780.50
2023-02-12T09:18:11.557Z,99777.94
2023-02-12T09:20:39.903Z,99773.50
2023-02-12T09:23:07.271Z,99775.97
2023-02-12T09:25:38.029Z,99771.87
2023-02-12T09:28:04.839Z,99779.13
2023-02-12T09:30:31.562Z,99785.31
2023-02-12T09:32:58.266Z,99789.13
2023-02-12T09:35:25.033Z,99791.91
2023-02-12T09:37:52.868Z,99787.66
2023-02-12T09:40:22.751Z,99793.66
2023-02-12T09:42:52.852Z,99792.12
2023-02-12T09:45:23.678Z,99789.28
2023-02-12T09:48:03.193Z,99801.75
2023-02-12T09:50:29.859Z,99793.09
2023-02-12T09:52:58.137Z,99795.69
2023-02-12T09:55:26.093Z,99790.63
2023-02-12T09:57:54.868Z,99791.72
2023-02-12T10:00:29.068Z,99795.16
2023-02-12T10:02:55.772Z,99801.81
2023-02-12T10:05:26.094Z,99799.47
2023-02-12T10:08:04.811Z,99799.91
2023-02-12T10:10:37.658Z,99806.91
2023-02-12T10:13:05.051Z,99800.44
2023-02-12T10:15:34.641Z,99799.25
2023-02-12T10:18:07.467Z,99804.59
2023-02-12T10:20:34.136Z,99803.44
2023-02-12T10:23:06.641Z,99807.75
2023-02-12T10:25:48.853Z,99813.00
2023-02-12T10:28:24.474Z,99812.97
2023-02-12T10:31:00.665Z,99818.03
2023-02-12T10:33:28.642Z,99802.63
2023-02-12T10:35:57.795Z,99816.50
2023-02-12T10:38:26.710Z,99811.34
2023-02-12T10:40:55.402Z,99808.13
2023-02-12T10:43:22.077Z,99807.69
2023-02-12T10:45:50.657Z,99794.50
2023-02-12T10:48:20.794Z,99795.84
2023-02-12T10:51:16.780Z,99787.41
2023-02-12T10:53:44.686Z,99778.25
2023-02-12T10:56:21.835Z,99776.72
2023-02-12T10:58:56.031Z,99771.66
2023-02-12T11:01:27.330Z,99770.59
2023-02-12T11:03:54.621Z,99772.34
2023-02-12T11:06:26.053Z,99779.56
2023-02-12T11:08:52.906Z,99775.50
2023-02-12T11:11:22.482Z,99773.50
2023-02-12T11:13:55.408Z,99768.94
2023-02-12T11:16:29.088Z,99776.12
2023-02-12T11:19:02.607Z,99779.97
2023-02-12T11:21:29.344Z,99770.28
2023-02-12T11:23:56.060Z,99787.37
2023-02-12T11:26:24.302Z,99782.25
2023-02-12T11:28:58.212Z,99784.91
2023-02-12T11:31:28.674Z,99781.91
2023-02-12T11:34:04.448Z,99780.00
2023-02-12T11:36:31.161Z,99791.44
2023-02-12T11:38:58.162Z,99790.09
2023-02-12T11:41:34.728Z,99794.22
2023-02-12T11:44:01.682Z,99795.16
2023-02-12T11:46:28.419Z,99781.47
2023-02-12T11:48:55.652Z,99795.84
2023-02-12T11:51:24.902Z,99791.47
2023-02-12T11:53:52.323Z,99787.78
2023-02-12T11:56:19.246Z,99784.38
2023-02-12T11:58:46.470Z,99787.63
2023-02-12T12:01:16.183Z,99787.91
2023-02-12T12:03:47.138Z,99759.38
2023-02-12T12:06:16.900Z,99784.66
2023-02-12T12:08:49.771Z,99783.03
2023-02-12T12:11:17.461Z,99781.25
2023-02-12T12:13:52.660Z,99771.50
2023-02-12T12:16:40.023Z,99773.28
2023-02-12T12:19:29.140Z,99768.53
2023-02-12T12:22:17.836Z,99768.00
2023-02-12T12:24:46.490Z,99750.72
2023-02-12T12:27:36.351Z,99774.72
2023-02-12T12:30:06.952Z,99789.25
2023-02-12T12:32:34.412Z,99772.75
2023-02-12T12:35:01.084Z,99776.34
2023-02-12T12:37:27.757Z,99767.78
2023-02-12T12:39:58.702Z,99762.97
2023-02-12T12:42:44.159Z,99767.97
2023-02-12T12:45:19.982Z,99770.47
2023-02-12T12:47:58.816Z,99764.97
2023-02-12T12:50:37.420Z,99766.44
2023-02-12T12:53:07.461Z,99766.50
2023-02-12T12:55:37.125Z,99767.25
2023-02-12T12:58:19.484Z,99767.81
2023-02-12T13:00:55.114Z,99768.38
2023-02-12T13:03:52.694Z,99767.94
2023-02-12T13:06:37.974Z,99775.38
2023-02-12T13:09:19.771Z,99780.19
2023-02-12T13:11:49.822Z,99773.78
2023-02-12T13:14:36.188Z,99773.44
2023-02-12T13:17:10.870Z,99771.25
2023-02-12T13:19:41.431Z,99776.94
2023-02-12T13:22:08.075Z,99775.06
2023-02-12T13:24:38.110Z,99781.53
2023-02-12T13:27:15.112Z,99771.34
2023-02-12T13:30:00.529Z,99772.87
2023-02-12T13:32:43.449Z,99772.13
2023-02-12T13:35:14.741Z,99774.56
2023-02-12T13:37:46.683Z,99775.72
2023-02-12T13:40:17.571Z,99784.47
2023-02-12T13:42:49.786Z,99782.66
2023-02-12T13:45:18.282Z,99775.19
2023-02-12T13:47:54.017Z,99791.34
2023-02-12T13:50:20.693Z,99796.47
2023-02-12T13:52:47.352Z,99786.72
2023-02-12T13:55:17.009Z,99793.66
2023-02-12T13:57:43.732Z,99803.16
2023-02-12T14:00:30.695Z,99803.97
2023-02-12T14:02:57.353Z,99792.03
2023-02-12T14:05:30.851Z,99801.75
2023-02-12T14:08:02.368Z,99803.00
2023-02-12T14:10:38.748Z,99803.19
2023-02-12T14:13:14.580Z,99804.28
2023-02-12T14:15:41.798Z,99803.75
2023-02-12T14:18:22.142Z,99802.25
2023-02-12T14:20:48.875Z,99796.31
2023-02-12T14:23:23.178Z,99803.13
2023-02-12T14:25:56.423Z,99807.81
2023-02-12T14:28:26.452Z,99800.12
2023-02-12T14:31:11.980Z,99804.34
2023-02-12T14:33:38.696Z,99804.44
2023-02-12T14:36:14.642Z,99806.78
2023-02-12T14:38:47.470Z,99808.16
2023-02-12T14:41:43.268Z,99815.84
2023-02-12T14:44:26.925Z,99816.88
2023-02-12T14:46:54.397Z,99820.44
2023-02-12T14:49:25.412Z,99807.94
2023-02-12T14:51:52.073Z,99827.00
2023-02-12T14:54:37.159Z,99815.75
2023-02-12T14:57:19.103Z,99818.72
2023-02-12T14:59:45.825Z,99810.22
2023-02-12T15:02:14.733Z,99819.81
2023-02-12T15:04:41.450Z,99821.38
2023-02-12T15:07:09.113Z,99825.53
2023-02-12T15:09:46.958Z,99823.38
2023-02-12T15:12:26.912Z,99827.34
2023-02-12T15:14:56.959Z,99822.75
2023-02-12T15:17:28.299Z,99826.37
2023-02-12T15:19:57.529Z,99820.97
2023-02-12T15:22:29.842Z,99821.38
2023-02-12T15:25:15.095Z,99814.75
2023-02-12T15:27:44.982Z,99815.66
2023-02-12T15:30:25.585Z,99823.50
2023-02-12T15:32:53.204Z,99814.41
2023-02-12T15:35:23.041Z,99828.88
2023-02-12T15:37:49.751Z,99825.47
2023-02-12T15:40:16.740Z,99833.66
2023-02-12T15:42:56.773Z,99825.06
2023-02-12T15:45:27.425Z,99826.41
2023-02-12T15:48:09.524Z,99826.50
2023-02-12T15:51:06.508Z,99830.25
2023-02-12T15:53:33.203Z,99833.44
2023-02-12T15:56:00.104Z,99843.03
2023-02-12T15:58:33.294Z,99855.94
2023-02-12T16:01:01.444Z,99850.94
2023-02-12T16:03:31.489Z,99860.28
2023-02-12T16:06:01.763Z,99864.84
2023-02-12T16:08:28.461Z,99863.16
2023-02-12T16:10:55.156Z,99859.53
2023-02-12T16:13:31.835Z,99864.63
2023-02-12T16:16:14.709Z,99870.44
2023-02-12T16:18:42.046Z,99867.56
2023-02-12T16:21:19.872Z,99862.38
2023-02-12T16:23:47.170Z,99859.91
2023-02-12T16:26:20.726Z,99858.75
2023-02-12T16:28:48.465Z,99864.72
2023-02-12T16:31:15.539Z,99865.16
2023-02-12T16:33:45.940Z,99861.59
2023-02-12T16:36:27.034Z,99865.00
2023-02-12T16:39:03.854Z,99870.06
2023-02-12T16:41:34.205Z,99869.34
2023-02-12T16:44:00.874Z,99880.34
2023-02-12T16:46:34.738Z,99873.53
2023-02-12T16:49:01.714Z,99878.87
2023-02-12T16:51:29.763Z,99875.44
2023-02-12T16:53:57.782Z,99879.75
2023-02-12T16:56:25.588Z,99892.50
2023-02-12T16:58:55.540Z,99899.44
2023-02-12T17:01:32.009Z,99909.63
2023-02-12T17:03:58.930Z,99909.75
2023-02-12T17:06:26.895Z,99912.31
2023-02-12T17:08:53.654Z,99918.28
2023-02-12T17:11:20.833Z,99930.97
2023-02-12T17:13:48.434Z,99920.84
2023-02-12T17:16:29.427Z,99924.22
2023-02-12T17:18:57.356Z,99922.41
2023-02-12T17:21:24.680Z,99925.94
2023-02-12T17:23:51.503Z,99933.59
2023-02-12T17:26:18.137Z,99936.59
2023-02-12T17:28:44.838Z,99941.53
2023-02-12T17:31:11.795Z,99938.72
2023-02-12T17:33:38.704Z,99942.44
2023-02-12T17:36:05.631Z,99952.50
2023-02-12T17:38:32.505Z,99950.69
2023-02-12T17:40:59.553Z,99959.50
2023-02-12T17:43:26.292Z,99953.06
2023-02-12T17:45:53.630Z,99966.09
2023-02-12T17:48:22.840Z,99959.19
2023-02-12T17:50:53.582Z,99960.19
2023-02-12T17:53:20.248Z,99971.37
2023-02-12T17:55:46.930Z,99966.25
2023-02-12T17:58:13.593Z,99965.34
2023-02-12T18:00:43.214Z,99961.81
2023-02-12T18:03:09.945Z,99964.41
2023-02-12T18:05:40.540Z,99962.84
2023-02-12T18:08:07.223Z,99961.94
2023-02-12T18:10:33.892Z,99967.94
2023-02-12T18:13:00.561Z,99971.47
2023-02-12T18:15:27.260Z,99970.69
2023-02-12T18:17:53.936Z,99975.09
2023-02-12T18:20:21.297Z,99976.91
2023-02-12T18:22:50.216Z,99973.81
2023-02-12T18:25:18.055Z,99982.94
2023-02-12T18:27:45.362Z,99977.84
2023-02-12T18:30:12.298Z,99983.00
2023-02-12T18:32:38.973Z,99980.28
2023-02-12T18:35:06.248Z,99976.19
2023-02-12T18:37:33.010Z,99981.50
2023-02-12T18:40:00.499Z,99982.94
2023-02-12T18:42:28.668Z,99990.44
2023-02-12T18:44:55.469Z,99981.50
2023-02-12T18:47:22.145Z,99990.22
2023-02-12T18:49:48.825Z,99994.50
2023-02-12T18:52:15.521Z,99996.22
2023-02-12T18:54:44.213Z,99994.41
2023-02-12T18:57:10.969Z,99991.00
2023-02-12T18:59:37.633Z,99991.91
2023-02-12T19:02:04.775Z,99984.97
2023-02-12T19:04:31.624Z,99987.59
2023-02-12T19:06:59.752Z,99991.09
2023-02-12T19:09:26.838Z,99985.69
2023-02-12T19:11:54.622Z,99993.66
2023-02-12T19:14:22.047Z,99991.69
2023-02-12T19:16:48.941Z,99983.28
2023-02-12T19:19:15.817Z,99996.22
2023-02-12T19:21:42.636Z,100003.41
2023-02-12T19:24:10.650Z,100004.09
2023-02-12T19:26:37.533Z,99994.94
2023-02-12T19:29:04.907Z,100000.81
2023-02-12T19:31:33.322Z,100004.53
2023-02-12T19:34:08.412Z,100001.19
2023-02-12T19:36:35.869Z,100009.34
2023-02-12T19:39:03.981Z,100012.91
2023-02-12T19:41:30.714Z,100007.84
2023-02-12T19:43:58.870Z,100000.22
2023-02-12T19:46:26.650Z,100012.69
2023-02-12T19:48:59.475Z,100006.78
2023-02-12T19:51:26.424Z,99999.03
2023-02-12T19:53:53.313Z,100005.03
2023-02-12T19:56:20.038Z,99995.81
2023-02-12T19:58:46.700Z,100001.75
2023-02-12T20:01:19.987Z,100011.97
2023-02-12T20:03:47.020Z,100004.03
2023-02-12T20:06:14.944Z,100006.97
2023-02-12T20:08:41.865Z,100000.09
2023-02-12T20:11:11.470Z,100008.84
2023-02-12T20:13:38.205Z,100003.00
2023-02-12T20:16:16.137Z,100001.50
2023-02-12T20:18:43.721Z,100000.66
2023-02-12T20:21:14.505Z,99996.81
2023-02-12T20:23:41.288Z,99990.16
2023-02-12T20:26:08.813Z,99993.34
2023-02-12T20:28:35.797Z,100005.56
2023-02-12T20:31:32.089Z,100008.91
2023-02-12T20:34:00.359Z,100011.16
2023-02-12T20:36:27.659Z,99998.72
2023-02-12T20:38:56.176Z,99996.03
2023-02-12T20:41:23.713Z,100003.94
2023-02-12T20:43:50.375Z,100003.88
2023-02-12T20:46:18.468Z,100002.84
2023-02-12T20:48:45.216Z,100002.91
2023-02-12T20:51:12.906Z,100006.91
2023-02-12T20:53:39.809Z,100002.13
2023-02-12T20:56:11.068Z,100008.47
2023-02-12T20:58:39.014Z,100013.63
2023-02-12T21:01:06.361Z,100010.59
2023-02-12T21:03:33.071Z,100012.50
2023-02-12T21:05:59.741Z,100012.41
2023-02-12T21:08:26.469Z,100016.75
2023-02-12T21:11:06.841Z,100004.72
2023-02-12T21:13:33.604Z,100012.50
2023-02-12T21:16:03.648Z,100003.63
2023-02-12T21:18:30.398Z,100006.34
2023-02-12T21:21:00.977Z,100006.50
2023-02-12T21:23:27.595Z,100004.75
2023-02-12T21:26:07.460Z,100014.88
2023-02-12T21:28:34.457Z,100013.16
2023-02-12T21:31:12.695Z,100011.56
2023-02-12T21:33:39.883Z,100016.47
2023-02-12T21:36:07.380Z,100020.09
2023-02-12T21:38:35.001Z,100014.19
2023-02-12T21:41:08.762Z,100012.91
2023-02-12T21:43:35.814Z,100016.31
2023-02-12T21:46:02.649Z,100008.06
2023-02-12T21:48:29.345Z,100013.94
2023-02-12T21:50:56.361Z,100009.75
2023-02-12T21:53:23.184Z,100013.00
2023-02-12T21:55:49.884Z,100024.94
2023-02-12T21:58:16.582Z,100018.44
2023-02-12T22:00:43.282Z,100011.56
2023-02-12T22:03:09.951Z,100014.19
2023-02-12T22:05:36.619Z,100015.03
2023-02-12T22:08:03.432Z,100021.56
2023-02-12T22:10:30.173Z,100025.53
2023-02-12T22:12:56.906Z,100019.87
2023-02-12T22:15:23.632Z,100017.28
2023-02-12T22:17:50.297Z,100025.97
2023-02-12T22:20:16.970Z,100032.16
2023-02-12T22:22:43.605Z,100025.97
2023-02-12T22:25:10.271Z,100036.00
2023-02-12T22:27:36.965Z,100037.72
2023-02-12T22:30:03.747Z,100044.63
2023-02-12T22:32:30.577Z,100046.69
2023-02-12T22:34:57.350Z,100047.56
2023-02-12T22:37:24.036Z,100051.03
2023-02-12T22:39:50.784Z,100052.72
2023-02-12T22:42:17.452Z,100047.59
2023-02-12T22:44:44.132Z,100048.47
2023-02-12T22:47:10.818Z,100052.75
2023-02-12T22:49:37.444Z,100044.19
2023-02-12T22:52:04.205Z,100049.31
2023-02-12T22:54:30.877Z,100047.41
2023-02-12T22:56:57.576Z,100055.09
2023-02-12T22:59:24.232Z,100056.09
2023-02-12T23:01:50.972Z,100051.03
2023-02-12T23:04:18.884Z,100049.31
2023-02-12T23:06:45.588Z,100052.69
2023-02-12T23:09:13.398Z,100049.25
2023-02-12T23:11:40.071Z,100055.31
2023-02-12T23:14:06.816Z,100060.34
2023-02-12T23:16:34.286Z,100053.97
2023-02-12T23:19:01.264Z,100054.97
2023-02-12T23:21:29.114Z,100055.81
2023-02-12T23:23:56.036Z,100058.47
2023-02-12T23:26:22.734Z,100061.09
2023-02-12T23:28:49.472Z,100055.16
2023-02-12T23:31:16.302Z,100045.62
2023-02-12T23:33:43.006Z,100055.06
2023-02-12T23:36:09.856Z,100044.16
2023-02-12T23:38:36.519Z,100044.78
2023-02-12T23:41:03.170Z,100037.91
2023-02-12T23:43:30.091Z,100039.75
2023-02-12T23:45:56.784Z,100041.59
2023-02-12T23:48:23.518Z,100042.44
2023-02-12T23:50:50.206Z,100046.72
2023-02-12T23:53:17.929Z,100043.09
2023-02-12T23:55:44.602Z,100036.16
2023-02-12T23:58:11.343Z,100033.00
